createdAt,value
2022-10-24T00:01:15.562Z,95076.50
2022-10-24T00:03:42.887Z,95087.09
2022-10-24T00:06:11.318Z,95093.75
2022-10-24T00:08:39.379Z,95081.94
2022-10-24T00:11:25.237Z,95092.88
2022-10-24T00:13:52.989Z,95091.25
2022-10-24T00:16:19.644Z,95091.72
2022-10-24T00:18:47.022Z,95101.78
2022-10-24T00:21:13.739Z,95091.88
2022-10-24T00:23:40.427Z,95089.03
2022-10-24T00:26:08.053Z,95094.91
2022-10-24T00:28:36.459Z,95092.16
2022-10-24T00:31:04.283Z,95095.34
2022-10-24T00:33:31.074Z,95070.56
2022-10-24T00:35:57.625Z,95071.72
2022-10-24T00:38:24.572Z,95059.53
2022-10-24T00:40:51.327Z,95065.03
2022-10-24T00:43:21.309Z,95072.44
2022-10-24T00:45:55.721Z,95062.13
2022-10-24T00:48:32.057Z,95058.88
2022-10-24T00:51:18.825Z,95063.16
2022-10-24T00:53:49.768Z,95062.00
2022-10-24T00:56:19.450Z,95072.22
2022-10-24T00:58:46.634Z,95062.91
2022-10-24T01:01:13.468Z,95059.53
2022-10-24T01:03:40.234Z,95062.41
2022-10-24T01:06:43.730Z,95064.44
2022-10-24T01:09:31.286Z,95065.41
2022-10-24T01:12:15.556Z,95074.47
2022-10-24T01:14:47.983Z,95075.28
2022-10-24T01:17:27.180Z,95060.25
2022-10-24T01:20:15.354Z,95064.97
2022-10-24T01:23:19.148Z,95060.41
2022-10-24T01:26:10.260Z,95052.69
2022-10-24T01:29:04.738Z,95082.00
2022-10-24T01:31:51.476Z,95076.03
2022-10-24T01:34:32.784Z,95075.16
2022-10-24T01:37:10.579Z,95077.47
2022-10-24T01:39:44.025Z,95075.97
2022-10-24T01:42:15.667Z,95085.91
2022-10-24T01:44:47.261Z,95086.78
2022-10-24T01:47:19.678Z,95085.47
2022-10-24T01:49:53.500Z,95080.41
2022-10-24T01:52:21.610Z,95076.84
2022-10-24T01:54:48.945Z,95065.53
2022-10-24T01:57:16.020Z,95060.81
2022-10-24T01:59:46.142Z,95048.19
2022-10-24T02:02:20.766Z,95064.03
2022-10-24T02:05:00.518Z,95049.00
2022-10-24T02:07:29.442Z,95049.78
2022-10-24T02:10:12.652Z,95049.78
2022-10-24T02:12:49.543Z,95048.03
2022-10-24T02:15:24.277Z,95048.75
2022-10-24T02:17:51.588Z,95049.13
2022-10-24T02:20:18.865Z,95044.03
2022-10-24T02:22:54.132Z,95040.22
2022-10-24T02:25:27.596Z,95062.97
2022-10-24T02:28:01.091Z,95050.28
2022-10-24T02:30:30.548Z,95040.78
2022-10-24T02:33:01.333Z,95035.25
2022-10-24T02:35:32.727Z,95036.84
2022-10-24T02:38:10.293Z,95035.19
2022-10-24T02:40:37.435Z,95030.47
2022-10-24T02:43:05.730Z,95024.69
2022-10-24T02:45:34.446Z,95018.72
2022-10-24T02:48:05.038Z,95019.53
2022-10-24T02:50:32.315Z,95023.59
2022-10-24T02:52:58.860Z,95031.78
2022-10-24T02:55:25.459Z,95027.00
2022-10-24T02:57:51.995Z,95027.34
2022-10-24T03:00:18.941Z,95029.03
2022-10-24T03:02:45.863Z,95017.66
2022-10-24T03:05:12.733Z,95025.03
2022-10-24T03:07:39.447Z,95028.00
2022-10-24T03:10:06.445Z,95020.00
2022-10-24T03:12:32.989Z,95029.59
2022-10-24T03:14:59.514Z,95031.97
2022-10-24T03:17:26.066Z,95014.66
2022-10-24T03:19:52.619Z,95023.19
2022-10-24T03:22:19.135Z,95021.53
2022-10-24T03:24:55.141Z,95027.03
2022-10-24T03:27:22.966Z,95033.94
2022-10-24T03:29:49.573Z,95040.41
2022-10-24T03:32:16.399Z,95035.16
2022-10-24T03:34:43.179Z,95043.06
2022-10-24T03:37:10.221Z,95032.16
2022-10-24T03:39:36.757Z,95029.59
2022-10-24T03:42:03.401Z,95030.47
2022-10-24T03:44:29.977Z,95031.75
2022-10-24T03:46:56.618Z,95025.94
2022-10-24T03:49:23.170Z,95024.88
2022-10-24T03:51:49.715Z,95037.84
2022-10-24T03:54:16.403Z,95026.38
2022-10-24T03:56:44.221Z,95021.31
2022-10-24T03:59:10.754Z,95029.59
2022-10-24T04:01:37.386Z,95038.03
2022-10-24T04:04:04.073Z,95033.22
2022-10-24T04:06:33.960Z,95027.81
2022-10-24T04:09:04.083Z,95034.03
2022-10-24T04:11:30.734Z,95030.94
2022-10-24T04:13:57.744Z,95041.16
2022-10-24T04:16:24.582Z,95036.78
2022-10-24T04:18:51.486Z,95029.78
2022-10-24T04:21:21.626Z,95034.22
2022-10-24T04:23:49.102Z,95044.00
2022-10-24T04:26:17.317Z,95038.72
2022-10-24T04:28:46.836Z,95039.81
2022-10-24T04:31:16.840Z,95034.28
2022-10-24T04:33:46.535Z,95036.63
2022-10-24T04:36:13.251Z,95049.88
2022-10-24T04:38:39.799Z,95041.59
2022-10-24T04:41:09.762Z,95053.06
2022-10-24T04:43:39.494Z,95051.72
2022-10-24T04:46:06.578Z,95046.28
2022-10-24T04:48:33.338Z,95053.66
2022-10-24T04:51:00.297Z,95044.59
2022-10-24T04:53:26.849Z,95047.88
2022-10-24T04:55:53.513Z,95051.09
2022-10-24T04:58:20.954Z,95057.94
2022-10-24T05:00:49.787Z,95048.34
2022-10-24T05:03:20.004Z,95048.00
2022-10-24T05:05:47.178Z,95055.97
2022-10-24T05:08:13.780Z,95061.50
2022-10-24T05:10:40.520Z,95059.19
2022-10-24T05:13:07.187Z,95056.59
2022-10-24T05:15:33.817Z,95054.09
2022-10-24T05:18:00.546Z,95058.22
2022-10-24T05:20:27.800Z,95058.56
2022-10-24T05:22:54.739Z,95060.06
2022-10-24T05:25:21.628Z,95070.63
2022-10-24T05:27:48.287Z,95066.63
2022-10-24T05:30:15.444Z,95061.03
2022-10-24T05:32:42.796Z,95049.22
2022-10-24T05:35:10.117Z,95057.84
2022-10-24T05:37:38.972Z,95053.03
2022-10-24T05:40:10.615Z,95055.44
2022-10-24T05:42:38.714Z,95054.28
2022-10-24T05:45:07.000Z,95061.03
2022-10-24T05:47:33.690Z,95055.78
2022-10-24T05:50:00.209Z,95048.69
2022-10-24T05:52:26.777Z,95052.25
2022-10-24T05:55:06.851Z,95051.44
2022-10-24T05:57:33.764Z,95046.81
2022-10-24T06:00:00.928Z,95063.34
2022-10-24T06:02:27.799Z,95052.94
2022-10-24T06:04:56.237Z,95059.16
2022-10-24T06:07:23.219Z,95063.09
2022-10-24T06:09:49.806Z,95061.56
2022-10-24T06:12:16.582Z,95060.78
2022-10-24T06:14:44.642Z,95061.91
2022-10-24T06:17:12.153Z,95052.88
2022-10-24T06:19:39.471Z,95076.94
2022-10-24T06:22:07.662Z,95067.97
2022-10-24T06:24:36.164Z,95063.63
2022-10-24T06:27:03.131Z,95071.97
2022-10-24T06:29:29.658Z,95067.69
2022-10-24T06:31:56.316Z,95055.16
2022-10-24T06:34:23.214Z,95064.94
2022-10-24T06:36:49.730Z,95055.00
2022-10-24T06:39:17.022Z,95051.78
2022-10-24T06:41:43.579Z,95061.47
2022-10-24T06:44:11.090Z,95059.44
2022-10-24T06:46:38.269Z,95065.03
2022-10-24T06:49:04.999Z,95059.59
2022-10-24T06:51:31.648Z,95057.28
2022-10-24T06:53:58.987Z,95067.63
2022-10-24T06:56:26.017Z,95074.28
2022-10-24T06:58:52.787Z,95075.41
2022-10-24T07:01:23.491Z,95067.44
2022-10-24T07:03:50.905Z,95066.19
2022-10-24T07:06:23.963Z,95073.03
2022-10-24T07:08:52.337Z,95085.56
2022-10-24T07:11:18.992Z,95091.06
2022-10-24T07:13:45.588Z,95086.91
2022-10-24T07:16:12.307Z,95094.47
2022-10-24T07:18:38.980Z,95104.06
2022-10-24T07:21:08.343Z,95104.25
2022-10-24T07:23:35.542Z,95114.66
2022-10-24T07:26:07.721Z,95104.53
2022-10-24T07:28:35.055Z,95089.75
2022-10-24T07:31:02.606Z,95083.50
2022-10-24T07:33:29.522Z,95105.16
2022-10-24T07:35:56.245Z,95100.06
2022-10-24T07:38:23.386Z,95127.09
2022-10-24T07:40:50.346Z,95138.34
2022-10-24T07:43:17.815Z,95137.19
2022-10-24T07:45:49.077Z,95127.66
2022-10-24T07:48:19.820Z,95141.09
2022-10-24T07:50:47.630Z,95143.84
2022-10-24T07:53:14.697Z,95140.66
2022-10-24T07:55:43.139Z,95145.94
2022-10-24T07:58:10.785Z,95153.84
2022-10-24T08:00:42.510Z,95156.56
2022-10-24T08:03:11.556Z,95152.19
2022-10-24T08:05:39.773Z,95161.78
2022-10-24T08:10:53.215Z,95173.59
2022-10-24T08:13:20.038Z,95172.72
2022-10-24T08:15:46.656Z,95167.63
2022-10-24T08:18:13.302Z,95175.78
2022-10-24T08:20:39.874Z,95178.75
2022-10-24T08:23:06.792Z,95180.00
2022-10-24T08:25:33.466Z,95188.91
2022-10-24T08:28:01.742Z,95180.28
2022-10-24T08:30:30.525Z,95179.91
2022-10-24T08:32:57.062Z,95161.75
2022-10-24T08:35:23.647Z,95166.59
2022-10-24T08:37:50.284Z,95172.66
2022-10-24T08:40:19.990Z,95167.25
2022-10-24T08:42:48.156Z,95171.59
2022-10-24T08:45:35.786Z,95178.16
2022-10-24T08:48:13.093Z,95158.41
2022-10-24T08:50:44.425Z,95184.13
2022-10-24T08:53:25.802Z,95181.28
2022-10-24T08:55:54.728Z,95194.28
2022-10-24T08:58:35.545Z,95176.66
2022-10-24T09:01:05.603Z,95181.72
2022-10-24T09:06:28.882Z,95183.84
2022-10-24T09:09:31.522Z,95176.97
2022-10-24T09:12:14.968Z,95177.25
2022-10-24T09:14:44.019Z,95180.38
2022-10-24T09:17:16.370Z,95187.53
2022-10-24T09:19:52.096Z,95193.00
2022-10-24T09:22:19.481Z,95198.44
2022-10-24T09:24:57.053Z,95193.06
2022-10-24T09:27:28.262Z,95191.94
2022-10-24T09:29:54.873Z,95184.72
2022-10-24T09:32:26.879Z,95204.03
2022-10-24T09:34:54.344Z,95202.59
2022-10-24T09:37:37.612Z,95194.38
2022-10-24T09:40:18.253Z,95205.63
2022-10-24T09:43:12.877Z,95205.72
2022-10-24T09:45:51.450Z,95201.44
2022-10-24T09:48:25.956Z,95217.38
2022-10-24T09:50:57.211Z,95210.25
2022-10-24T09:53:25.522Z,95218.53
2022-10-24T09:55:57.009Z,95206.50
2022-10-24T09:58:30.073Z,95227.03
2022-10-24T10:01:18.600Z,95217.41
2022-10-24T10:04:07.510Z,95198.00
2022-10-24T10:06:34.445Z,95234.84
2022-10-24T10:09:01.094Z,95241.22
2022-10-24T10:11:35.104Z,95237.41
2022-10-24T10:14:16.140Z,95252.13
2022-10-24T10:16:42.755Z,95258.97
2022-10-24T10:19:18.270Z,95258.91
2022-10-24T10:22:31.842Z,95253.53
2022-10-24T10:25:00.158Z,95255.84
2022-10-24T10:27:37.787Z,95263.25
2022-10-24T10:30:17.456Z,95283.63
2022-10-24T10:32:52.726Z,95276.41
2022-10-24T10:35:33.186Z,95294.94
2022-10-24T10:38:17.722Z,95282.75
2022-10-24T10:40:46.816Z,95297.63
2022-10-24T10:43:31.745Z,95294.78
2022-10-24T10:46:18.486Z,95312.22
2022-10-24T10:49:16.582Z,95293.88
2022-10-24T10:51:47.638Z,95304.13
2022-10-24T10:54:26.950Z,95306.56
2022-10-24T10:56:59.543Z,95280.78
2022-10-24T10:59:53.793Z,95299.06
2022-10-24T11:02:39.097Z,95288.19
2022-10-24T11:05:27.666Z,95306.19
2022-10-24T11:08:01.587Z,95293.25
2022-10-24T11:10:37.901Z,95304.63
2022-10-24T11:13:11.383Z,95293.13
2022-10-24T11:15:44.211Z,95295.16
2022-10-24T11:18:35.455Z,95299.00
2022-10-24T11:21:08.634Z,95294.50
2022-10-24T11:24:09.902Z,95305.78
2022-10-24T11:26:56.777Z,95286.22
2022-10-24T11:29:26.173Z,95306.63
2022-10-24T11:31:57.776Z,95303.59
2022-10-24T11:34:32.627Z,95321.84
2022-10-24T11:37:12.890Z,95308.91
2022-10-24T11:39:55.249Z,95308.31
2022-10-24T11:42:30.399Z,95291.94
2022-10-24T11:45:11.246Z,95310.78
2022-10-24T11:47:55.737Z,95298.13
2022-10-24T11:50:25.537Z,95298.06
2022-10-24T11:52:57.109Z,95307.59
2022-10-24T11:55:28.094Z,95298.63
2022-10-24T11:57:58.689Z,95319.22
2022-10-24T12:00:31.026Z,95319.56
2022-10-24T12:03:16.641Z,95314.06
2022-10-24T12:05:52.927Z,95314.19
2022-10-24T12:09:00.176Z,95321.59
2022-10-24T12:11:40.535Z,95315.06
2022-10-24T12:14:10.068Z,95311.78
2022-10-24T12:16:49.712Z,95326.03
2022-10-24T12:19:19.639Z,95317.66
2022-10-24T12:21:57.663Z,95304.47
2022-10-24T12:24:33.399Z,95303.66
2022-10-24T12:27:06.934Z,95307.22
2022-10-24T12:29:36.865Z,95306.50
2022-10-24T12:32:24.068Z,95306.50
2022-10-24T12:35:28.837Z,95314.06
2022-10-24T12:37:49.194Z,95309.16
2022-10-24T12:40:54.399Z,95309.25
2022-10-24T12:43:38.577Z,95304.53
2022-10-24T12:46:23.034Z,95305.41
2022-10-24T12:48:59.358Z,95297.09
2022-10-24T12:51:26.393Z,95302.34
2022-10-24T12:54:11.260Z,95310.78
2022-10-24T12:56:49.925Z,95303.88
2022-10-24T12:59:20.829Z,95306.56
2022-10-24T13:01:49.934Z,95309.66
2022-10-24T13:04:50.683Z,95312.72
2022-10-24T13:07:48.653Z,95323.91
2022-10-24T13:10:26.272Z,95327.13
2022-10-24T13:13:10.746Z,95317.28
2022-10-24T13:16:12.434Z,95312.75
2022-10-24T13:19:06.880Z,95298.72
2022-10-24T13:21:46.688Z,95310.66
2022-10-24T13:24:16.636Z,95306.13
2022-10-24T13:26:44.721Z,95289.41
2022-10-24T13:29:36.303Z,95291.09
2022-10-24T13:32:05.958Z,95278.88
2022-10-24T13:34:50.624Z,95285.63
2022-10-24T13:37:50.697Z,95283.50
2022-10-24T13:40:30.585Z,95289.66
2022-10-24T13:43:14.194Z,95287.88
2022-10-24T13:45:52.774Z,95293.13
2022-10-24T13:48:27.097Z,95286.00
2022-10-24T13:51:16.071Z,95301.84
2022-10-24T13:53:50.218Z,95292.84
2022-10-24T13:56:18.071Z,95298.81
2022-10-24T13:58:45.965Z,95293.38
2022-10-24T14:01:25.134Z,95303.34
2022-10-24T14:03:53.366Z,95282.88
2022-10-24T14:06:32.555Z,95282.06
2022-10-24T14:09:10.601Z,95294.06
2022-10-24T14:11:48.662Z,95292.56
2022-10-24T14:14:42.512Z,95290.50
2022-10-24T14:17:26.890Z,95306.72
2022-10-24T14:20:18.339Z,95295.75
2022-10-24T14:22:45.274Z,95300.84
2022-10-24T14:25:33.391Z,95293.63
2022-10-24T14:28:03.698Z,95286.22
2022-10-24T14:30:33.569Z,95300.84
2022-10-24T14:33:15.935Z,95283.47
2022-10-24T14:35:42.847Z,95300.03
2022-10-24T14:38:15.630Z,95311.00
2022-10-24T14:40:49.520Z,95310.75
2022-10-24T14:43:30.579Z,95314.94
2022-10-24T14:46:12.274Z,95318.78
2022-10-24T14:48:47.005Z,95313.00
2022-10-24T14:51:39.004Z,95309.50
2022-10-24T14:54:20.447Z,95323.59
2022-10-24T14:56:47.564Z,95312.19
2022-10-24T14:59:24.058Z,95309.16
2022-10-24T15:01:59.324Z,95307.19
2022-10-24T15:04:40.302Z,95301.25
2022-10-24T15:07:57.218Z,95303.53
2022-10-24T15:10:36.113Z,95308.59
2022-10-24T15:13:25.406Z,95296.38
2022-10-24T15:15:57.996Z,95288.09
2022-10-24T15:18:29.090Z,95297.19
2022-10-24T15:21:07.167Z,95292.28
2022-10-24T15:23:48.933Z,95292.31
2022-10-24T15:26:24.171Z,95309.13
2022-10-24T15:29:01.826Z,95311.66
2022-10-24T15:31:30.579Z,95292.97
2022-10-24T15:33:57.194Z,95296.72
2022-10-24T15:36:31.576Z,95305.22
2022-10-24T15:39:06.388Z,95306.66
2022-10-24T15:41:33.417Z,95304.94
2022-10-24T15:44:00.672Z,95301.66
2022-10-24T15:46:27.277Z,95300.22
2022-10-24T15:48:54.051Z,95302.09
2022-10-24T15:51:25.169Z,95296.50
2022-10-24T15:53:53.245Z,95304.75
2022-10-24T15:56:20.062Z,95299.69
2022-10-24T16:01:26.141Z,95306.91
2022-10-24T16:03:52.954Z,95297.84
2022-10-24T16:06:21.906Z,95304.84
2022-10-24T16:08:49.197Z,95308.41
2022-10-24T16:11:16.063Z,95308.31
2022-10-24T16:13:42.791Z,95300.41
2022-10-24T16:16:09.604Z,95304.31
2022-10-24T16:18:36.462Z,95297.28
2022-10-24T16:21:05.020Z,95310.47
2022-10-24T16:23:33.214Z,95322.66
2022-10-24T16:26:00.374Z,95317.03
2022-10-24T16:28:28.848Z,95326.56
2022-10-24T16:30:55.675Z,95329.59
2022-10-24T16:33:22.584Z,95329.22
2022-10-24T16:35:49.464Z,95347.97
2022-10-24T16:38:16.163Z,95347.88
2022-10-24T16:40:45.081Z,95352.16
2022-10-24T16:43:14.203Z,95360.69
2022-10-24T16:45:41.057Z,95360.28
2022-10-24T16:48:07.580Z,95352.84
2022-10-24T16:50:34.272Z,95354.72
2022-10-24T16:53:03.967Z,95353.44
2022-10-24T16:55:32.046Z,95360.00
2022-10-24T16:57:58.995Z,95377.13
2022-10-24T17:00:26.249Z,95377.94
2022-10-24T17:02:55.024Z,95373.25
2022-10-24T17:05:24.523Z,95362.47
2022-10-24T17:07:51.183Z,95367.75
2022-10-24T17:10:20.748Z,95378.06
2022-10-24T17:12:50.697Z,95363.38
2022-10-24T17:15:21.111Z,95363.38
2022-10-24T17:17:49.343Z,95372.69
2022-10-24T17:20:17.434Z,95368.91
2022-10-24T17:22:45.467Z,95360.91
2022-10-24T17:25:21.716Z,95370.31
2022-10-24T17:27:49.380Z,95368.69
2022-10-24T17:30:21.373Z,95373.84
2022-10-24T17:32:48.829Z,95365.94
2022-10-24T17:35:18.270Z,95363.66
2022-10-24T17:37:44.776Z,95373.50
2022-10-24T17:40:24.805Z,95368.47
2022-10-24T17:42:52.267Z,95375.13
2022-10-24T17:45:23.581Z,95371.22
2022-10-24T17:47:50.331Z,95370.88
2022-10-24T17:50:18.433Z,95381.06
2022-10-24T17:52:50.864Z,95376.03
2022-10-24T17:55:40.903Z,95387.59
2022-10-24T17:58:06.779Z,95382.91
2022-10-24T18:00:34.184Z,95386.00
2022-10-24T18:03:01.660Z,95380.16
2022-10-24T18:05:31.117Z,95389.44
2022-10-24T18:07:58.074Z,95387.84
2022-10-24T18:10:24.894Z,95382.69
2022-10-24T18:12:52.986Z,95402.28
2022-10-24T18:15:20.919Z,95402.28
2022-10-24T18:17:48.374Z,95410.56
2022-10-24T18:20:16.591Z,95401.72
2022-10-24T18:22:44.593Z,95400.91
2022-10-24T18:25:13.533Z,95417.09
2022-10-24T18:27:41.201Z,95413.41
2022-10-24T18:30:09.817Z,95418.00
2022-10-24T18:32:36.542Z,95420.75
2022-10-24T18:35:04.130Z,95419.50
2022-10-24T18:37:30.843Z,95423.75
2022-10-24T18:39:57.693Z,95421.00
2022-10-24T18:43:08.919Z,95430.41
2022-10-24T18:45:36.393Z,95428.56
2022-10-24T18:48:03.572Z,95433.81
2022-10-24T18:50:30.286Z,95440.00
2022-10-24T18:53:09.835Z,95443.91
2022-10-24T18:55:36.964Z,95439.09
2022-10-24T18:58:04.911Z,95440.91
2022-10-24T19:00:36.674Z,95443.53
2022-10-24T19:03:36.930Z,95439.53
2022-10-24T19:06:17.274Z,95438.63
2022-10-24T19:08:44.121Z,95449.41
2022-10-24T19:11:14.267Z,95457.31
2022-10-24T19:13:42.086Z,95466.38
2022-10-24T19:16:16.740Z,95459.50
2022-10-24T19:18:49.579Z,95463.66
2022-10-24T19:21:16.182Z,95462.97
2022-10-24T19:23:42.743Z,95465.72
2022-10-24T19:26:11.725Z,95458.16
2022-10-24T19:28:38.447Z,95472.72
2022-10-24T19:31:06.452Z,95477.44
2022-10-24T19:33:33.041Z,95467.75
2022-10-24T19:36:04.160Z,95480.41
2022-10-24T19:38:31.719Z,95479.69
2022-10-24T19:40:58.833Z,95486.88
2022-10-24T19:43:29.210Z,95494.22
2022-10-24T19:48:43.142Z,95489.41
2022-10-24T19:51:11.854Z,95497.78
2022-10-24T19:53:43.203Z,95478.84
2022-10-24T19:56:15.700Z,95496.97
2022-10-24T19:58:43.085Z,95494.34
2022-10-24T20:01:15.794Z,95500.06
2022-10-24T20:03:47.099Z,95499.13
2022-10-24T20:06:14.147Z,95488.81
2022-10-24T20:08:41.011Z,95485.00
2022-10-24T20:11:09.116Z,95479.06
2022-10-24T20:13:36.143Z,95488.31
2022-10-24T20:16:05.908Z,95490.41
2022-10-24T20:18:34.853Z,95491.53
2022-10-24T20:21:06.602Z,95506.78
2022-10-24T20:23:34.071Z,95494.97
2022-10-24T20:26:03.008Z,95498.41
2022-10-24T20:28:29.737Z,95494.84
2022-10-24T20:30:56.291Z,95496.44
2022-10-24T20:33:22.916Z,95503.22
2022-10-24T20:35:49.448Z,95500.47
2022-10-24T20:38:16.169Z,95513.88
2022-10-24T20:40:42.736Z,95518.69
2022-10-24T20:43:09.328Z,95513.78
2022-10-24T20:45:40.272Z,95513.44
2022-10-24T20:48:07.039Z,95504.16
2022-10-24T20:50:33.704Z,95522.81
2022-10-24T20:53:00.276Z,95529.31
2022-10-24T20:55:39.455Z,95528.41
2022-10-24T20:58:13.384Z,95528.53
2022-10-24T21:03:08.552Z,95531.81
2022-10-24T21:05:35.381Z,95531.22
2022-10-24T21:08:02.059Z,95527.88
2022-10-24T21:10:28.597Z,95539.34
2022-10-24T21:12:55.385Z,95540.16
2022-10-24T21:15:22.003Z,95535.44
2022-10-24T21:17:48.689Z,95550.72
2022-10-24T21:20:15.552Z,95556.34
2022-10-24T21:22:42.167Z,95553.75
2022-10-24T21:25:09.103Z,95556.63
2022-10-24T21:27:35.655Z,95557.56
2022-10-24T21:30:02.187Z,95562.72
2022-10-24T21:32:28.778Z,95566.25
2022-10-24T21:34:55.303Z,95559.63
2022-10-24T21:37:21.843Z,95556.06
2022-10-24T21:39:48.350Z,95556.88
2022-10-24T21:42:14.910Z,95572.09
2022-10-24T21:44:41.529Z,95572.91
2022-10-24T21:47:08.058Z,95562.59
2022-10-24T21:49:34.622Z,95573.59
2022-10-24T21:52:01.149Z,95571.50
2022-10-24T21:54:28.720Z,95573.00
2022-10-24T21:56:55.395Z,95568.84
2022-10-24T21:59:23.112Z,95575.59
2022-10-24T22:01:51.605Z,95581.91
2022-10-24T22:04:19.115Z,95576.88
2022-10-24T22:06:46.405Z,95588.34
2022-10-24T22:09:17.862Z,95587.69
2022-10-24T22:11:44.784Z,95597.00
2022-10-24T22:14:14.070Z,95591.34
2022-10-24T22:16:41.529Z,95599.28
2022-10-24T22:19:10.145Z,95599.28
2022-10-24T22:21:45.408Z,95609.47
2022-10-24T22:24:15.406Z,95613.50
2022-10-24T22:26:42.022Z,95594.91
2022-10-24T22:29:10.761Z,95607.06
2022-10-24T22:31:37.943Z,95601.56
2022-10-24T22:34:05.058Z,95609.81
2022-10-24T22:36:43.817Z,95601.56
2022-10-24T22:39:20.207Z,95607.06
2022-10-24T22:41:47.638Z,95606.25
2022-10-24T22:44:16.909Z,95609.47
2022-10-24T22:47:21.348Z,95617.84
2022-10-24T22:50:05.839Z,95617.38
2022-10-24T22:52:33.011Z,95620.94
2022-10-24T22:54:59.814Z,95628.38
2022-10-24T22:57:26.742Z,95633.91
2022-10-24T22:59:53.694Z,95622.56
2022-10-24T23:02:36.757Z,95635.38
2022-10-24T23:05:33.467Z,95631.94
2022-10-24T23:08:04.655Z,95635.38
2022-10-24T23:10:31.999Z,95637.19
2022-10-24T23:12:59.519Z,95643.81
2022-10-24T23:15:26.431Z,95645.09
2022-10-24T23:17:53.225Z,95640.53
2022-10-24T23:20:19.689Z,95647.44
2022-10-24T23:22:54.283Z,95647.44
2022-10-24T23:25:30.238Z,95652.28
2022-10-24T23:28:35.274Z,95655.22
2022-10-24T23:33:29.596Z,95662.34
2022-10-24T23:35:59.098Z,95667.38
2022-10-24T23:38:26.658Z,95664.28
2022-10-24T23:40:53.711Z,95668.97
2022-10-24T23:43:21.440Z,95672.53
2022-10-24T23:45:54.075Z,95668.19
2022-10-24T23:49:03.058Z,95678.84
2022-10-24T23:51:31.037Z,95684.34
2022-10-24T23:53:58.041Z,95680.44
2022-10-24T23:56:27.807Z,95685.28
2022-10-24T23:58:55.390Z,95688.38
